KFUL/FUL METAR and TAF weather

Enter ICAO airport designator
Station Type Date Time Source
KFUL METAR 2018/12/19 02:53 UTC NOAA

KFUL 190253Z 29003KT 10SM CLR 16/12 A3014 RMK AO2 SLP205 T01610117 53003


Station Type Date Time Source
KFUL Decoded METAR 2018/12/19 02:53 UTC NOAA

FULLERTON MUNICIPAL AIRPORT , CA, United States (KFUL) 33-52N 117-59W 35M
Dec 18, 2018 - 09:53 PM EST / 2018.12.19 0253 UTC
Wind: from the WNW (290 degrees) at 3 MPH (3 KT):0
Visibility: 10 mile(s):0
Sky conditions: clear
Temperature: 61.0 F (16.1 C)
Dew Point: 53.1 F (11.7 C)
Relative Humidity: 75%
Pressure (altimeter): 30.14 in. Hg (1020 hPa)
Pressure tendency: 0.01 inches (0.3 hPa) higher than three hours ago
ob: KFUL 190253Z 29003KT 10SM CLR 16/12 A3014 RMK AO2 SLP205 T01610117 53003
cycle: 3

Station Type Date Time Source
KFUL TAF UTC NOAA

Error!


Example: see airport list